Time;durP1;ratioP1;P1;durP2;ratioP2;P2;SDS_P1;SDS_P2;PMS_P1;PMS_P2;Temp;Humidity;BMP_temperature;BMP_pressure;BME280_temperature;BME280_humidity;BME280_pressure;Samples;Min_cycle;Max_cycle;Signal;HPM_P1;HPM_P2
2023/03/08 00:00:27;;;;;;;;;16.40;15.00;;;;;10.68;41.91;96936.31;6242466;27;97534;-58
2023/03/08 00:03:32;;;;;;;;;16.00;15.60;;;;;10.73;41.85;96940.91;6259956;27;96537;-58
2023/03/08 00:06:36;;;;;;;;;16.00;15.00;;;;;10.82;41.92;96950.06;6242365;27;96828;-58
2023/03/08 00:09:39;;;;;;;;;15.40;14.00;;;;;10.89;41.79;96947.91;6295666;27;97024;-59
2023/03/08 00:12:42;;;;;;;;;16.00;14.00;;;;;10.77;41.84;96942.78;6257831;27;96538;-58
2023/03/08 00:15:46;;;;;;;;;16.40;15.80;;;;;10.80;41.92;96938.72;6229319;27;96448;-58
2023/03/08 00:18:51;;;;;;;;;15.20;14.20;;;;;10.60;42.30;96952.22;6237012;27;99493;-58
2023/03/08 00:21:54;;;;;;;;;14.00;14.00;;;;;10.55;42.34;96950.34;6181720;28;97632;-57
2023/03/08 00:24:57;;;;;;;;;15.80;13.80;;;;;10.57;42.36;96950.88;6189788;28;96299;-58
2023/03/08 00:28:01;;;;;;;;;16.00;14.80;;;;;10.62;42.38;96953.56;6236494;27;96909;-59
2023/03/08 00:31:07;;;;;;;;;14.00;13.00;;;;;10.70;42.07;96953.03;6240104;27;96773;-58
2023/03/08 00:34:12;;;;;;;;;17.40;16.00;;;;;10.78;41.92;96949.81;6206832;27;97057;-59
2023/03/08 00:37:16;;;;;;;;;16.00;14.00;;;;;10.60;42.18;96925.28;6201948;27;96495;-58
2023/03/08 00:40:21;;;;;;;;;15.00;14.00;;;;;10.49;42.54;96943.31;6251467;27;98433;-56
2023/03/08 00:43:24;;;;;;;;;15.40;14.00;;;;;10.50;42.89;96952.22;6207619;28;96350;-55
2023/03/08 00:46:28;;;;;;;;;15.40;14.00;;;;;10.41;43.17;96941.97;6264165;27;98562;-55
2023/03/08 00:49:33;;;;;;;;;13.20;12.60;;;;;10.48;43.00;96947.09;6205295;27;97001;-58
2023/03/08 00:52:36;;;;;;;;;17.00;15.00;;;;;10.56;43.02;96940.34;6210960;27;96978;-55
2023/03/08 00:55:48;;;;;;;;;15.60;14.60;;;;;10.50;43.16;96952.22;6282209;27;97889;-56
2023/03/08 00:58:51;;;;;;;;;15.40;15.00;;;;;10.41;43.45;96933.88;6256378;27;97730;-57
2023/03/08 01:01:55;;;;;;;;;15.00;14.00;;;;;10.53;43.48;96947.09;6296602;27;96861;-57
2023/03/08 01:05:01;;;;;;;;;16.60;15.00;;;;;10.63;43.29;96951.69;6324503;27;96560;-56
2023/03/08 01:08:04;;;;;;;;;15.80;14.60;;;;;10.63;43.44;96954.38;6255664;27;97425;-56
2023/03/08 01:11:15;;;;;;;;;17.00;15.00;;;;;10.58;43.48;96963.28;6245137;27;97068;-56
2023/03/08 01:14:19;;;;;;;;;13.50;12.00;;;;;10.53;43.90;96957.06;6265694;27;96398;-55
2023/03/08 01:17:22;;;;;;;;;15.60;15.00;;;;;10.42;43.98;96935.50;6292056;27;96338;-56
2023/03/08 01:20:27;;;;;;;;;16.20;15.00;;;;;10.61;43.62;96960.03;6252395;27;97570;-56
2023/03/08 01:23:31;;;;;;;;;16.60;14.60;;;;;10.60;43.40;96950.34;6226825;27;99249;-55
2023/03/08 01:26:35;;;;;;;;;15.60;15.00;;;;;10.61;43.80;96970.00;6252587;27;99194;-55
2023/03/08 01:29:38;;;;;;;;;18.00;16.00;;;;;10.71;43.25;96960.03;6266915;27;96402;-56
2023/03/08 01:32:42;;;;;;;;;18.00;16.00;;;;;10.79;43.30;96956.00;6260756;27;97780;-55
2023/03/08 01:35:47;;;;;;;;;18.00;17.50;;;;;10.81;43.11;96954.66;6233462;27;96644;-56
2023/03/08 01:38:51;;;;;;;;;15.40;15.00;;;;;10.83;43.04;96951.69;6234396;27;96681;-56
2023/03/08 01:41:55;;;;;;;;;16.00;15.50;;;;;10.85;42.90;96963.81;6302330;27;96711;-55
2023/03/08 01:45:02;;;;;;;;;19.00;17.40;;;;;10.76;43.15;96960.03;6295268;27;99065;-55
2023/03/08 01:48:07;;;;;;;;;15.80;15.40;;;;;10.76;43.14;96959.22;6297780;27;99461;-55
2023/03/08 01:51:37;;;;;;;;;20.20;18.40;;;;;10.75;43.23;96957.63;6315986;27;96624;-56
2023/03/08 01:54:45;;;;;;;;;22.00;20.40;;;;;10.66;43.39;96956.53;6298932;27;97822;-55
2023/03/08 01:57:52;;;;;;;;;18.50;16.00;;;;;10.76;43.37;96962.72;6295849;27;98330;-55
2023/03/08 02:00:56;;;;;;;;;20.40;19.00;;;;;10.83;43.47;96960.59;6307179;27;96313;-55
2023/03/08 02:04:00;;;;;;;;;21.40;20.40;;;;;10.83;42.99;96959.78;6298599;27;99569;-56
2023/03/08 02:07:05;;;;;;;;;21.60;19.20;;;;;10.80;43.37;96969.19;6307250;27;98411;-55
2023/03/08 02:10:11;;;;;;;;;24.00;21.00;;;;;10.77;43.37;96961.66;6308465;27;96895;-55
2023/03/08 02:13:14;;;;;;;;;20.20;19.00;;;;;10.81;43.36;96967.31;6295117;27;96355;-57
2023/03/08 02:16:21;;;;;;;;;20.00;18.00;;;;;10.75;43.47;96966.50;6315217;27;96212;-55
2023/03/08 02:19:32;;;;;;;;;18.00;18.00;;;;;10.61;43.90;96965.41;6298370;27;98410;-55
2023/03/08 02:22:39;;;;;;;;;23.20;22.80;;;;;10.57;43.93;96955.44;6313586;27;98397;-55
2023/03/08 02:25:51;;;;;;;;;24.00;22.00;;;;;10.49;44.07;96953.28;6315981;27;96724;-56
2023/03/08 02:28:55;;;;;;;;;23.80;21.80;;;;;10.45;44.34;96954.91;6315659;27;96377;-56
2023/03/08 02:31:58;;;;;;;;;21.00;20.00;;;;;10.37;44.06;96946.25;6316670;27;96285;-56
2023/03/08 02:35:02;;;;;;;;;20.50;20.00;;;;;10.35;43.92;96947.63;6315147;27;97269;-56
2023/03/08 02:38:06;;;;;;;;;21.60;21.00;;;;;10.35;43.58;96945.75;6312020;27;96247;-56
2023/03/08 02:41:10;;;;;;;;;23.00;20.00;;;;;10.14;43.82;96960.19;6261601;27;96787;-56
2023/03/08 02:44:13;;;;;;;;;20.50;20.50;;;;;10.16;42.80;96949.22;6260411;27;96972;-56
2023/03/08 02:47:16;;;;;;;;;20.00;18.00;;;;;10.03;42.74;96953.16;6197414;27;96258;-57
2023/03/08 02:50:21;;;;;;;;;22.50;20.50;;;;;9.93;42.63;96943.19;6276165;27;96302;-56
2023/03/08 02:53:26;;;;;;;;;24.40;21.60;;;;;9.89;42.54;96962.81;6199390;27;96143;-56
2023/03/08 02:56:30;;;;;;;;;24.40;23.00;;;;;9.78;42.47;96961.16;6191569;27;96941;-56
2023/03/08 02:59:33;;;;;;;;;20.00;19.00;;;;;9.81;42.38;96937.22;6244334;27;96790;-55
2023/03/08 03:02:37;;;;;;;;;22.60;20.60;;;;;9.82;42.03;96946.13;6258863;27;96407;-56
2023/03/08 03:05:43;;;;;;;;;21.60;19.80;;;;;9.69;42.08;96941.19;6244220;27;96796;-56
2023/03/08 03:08:51;;;;;;;;;22.00;20.00;;;;;9.63;41.87;96942.28;6224011;27;96680;-56
2023/03/08 03:11:55;;;;;;;;;19.60;18.60;;;;;9.60;41.40;96948.16;6196868;28;97005;-59
2023/03/08 03:15:00;;;;;;;;;19.00;19.00;;;;;9.55;41.35;96943.56;6179875;28;96821;-58
2023/03/08 03:18:04;;;;;;;;;17.00;16.00;;;;;9.63;41.23;96943.06;6278093;27;96194;-59
2023/03/08 03:21:11;;;;;;;;;20.40;16.40;;;;;9.67;40.93;96954.94;6273377;27;96279;-59
2023/03/08 03:24:16;;;;;;;;;17.40;16.00;;;;;9.75;40.73;96953.63;6172626;27;96566;-58
2023/03/08 03:27:28;;;;;;;;;22.60;21.00;;;;;9.76;40.58;96968.69;6191366;28;96499;-58
2023/03/08 03:30:31;;;;;;;;;17.00;15.40;;;;;9.72;40.70;96972.97;6220827;27;96306;-58
2023/03/08 03:33:36;;;;;;;;;13.00;12.00;;;;;9.77;40.36;96978.38;6214446;27;96271;-58
2023/03/08 03:36:40;;;;;;;;;19.00;18.00;;;;;9.72;40.49;96978.38;6261518;27;99246;-58
2023/03/08 03:39:46;;;;;;;;;19.00;17.00;;;;;9.82;40.39;96983.78;6273771;27;96997;-59
2023/03/08 03:42:52;;;;;;;;;18.20;17.20;;;;;9.87;40.41;96989.97;6241475;27;96519;-59
2023/03/08 03:45:56;;;;;;;;;16.20;16.00;;;;;9.81;40.45;96998.31;6278356;27;96403;-59
2023/03/08 03:49:01;;;;;;;;;17.00;17.00;;;;;9.83;40.43;97006.91;6255936;27;96362;-59
2023/03/08 03:52:09;;;;;;;;;15.00;14.60;;;;;9.76;40.16;97011.75;6241164;27;96235;-58
2023/03/08 03:55:20;;;;;;;;;16.00;15.00;;;;;9.64;40.64;97014.63;6253425;27;98392;-59
2023/03/08 03:58:23;;;;;;;;;20.00;18.60;;;;;9.66;40.43;97012.50;6267347;27;97054;-59
2023/03/08 04:01:29;;;;;;;;;15.00;14.60;;;;;9.62;40.46;97030.25;6247031;27;96520;-58
2023/03/08 04:04:42;;;;;;;;;12.00;12.00;;;;;9.62;40.40;97038.31;6262722;27;96480;-58
2023/03/08 04:07:48;;;;;;;;;17.00;13.00;;;;;9.58;40.27;97046.06;6286510;27;96357;-59
2023/03/08 04:11:00;;;;;;;;;16.60;15.60;;;;;9.49;40.62;97050.31;6260241;27;96887;-59
2023/03/08 04:14:04;;;;;;;;;17.00;16.00;;;;;9.36;40.75;97050.78;6250779;27;97476;-59
2023/03/08 04:17:09;;;;;;;;;17.80;17.80;;;;;9.30;40.79;97053.69;6239937;27;97674;-60
2023/03/08 04:20:18;;;;;;;;;20.00;16.00;;;;;9.31;40.72;97066.06;6304518;27;99277;-58
2023/03/08 04:23:29;;;;;;;;;18.25;18.00;;;;;9.18;40.81;97059.25;6245964;27;97408;-59
2023/03/08 04:26:35;;;;;;;;;19.00;16.00;;;;;9.15;40.81;97054.38;6253031;27;96386;-59
2023/03/08 04:29:38;;;;;;;;;18.00;15.50;;;;;9.08;40.86;97072.63;6296610;27;97423;-59
2023/03/08 04:32:42;;;;;;;;;16.00;15.50;;;;;9.14;40.75;97072.38;6264730;27;97515;-59
2023/03/08 04:35:45;;;;;;;;;15.25;14.00;;;;;9.08;40.82;97081.50;6245020;27;96310;-58
2023/03/08 04:38:52;;;;;;;;;14.00;13.00;;;;;9.04;40.75;97090.31;6250660;27;96258;-59
2023/03/08 04:41:58;;;;;;;;;17.00;15.60;;;;;9.06;40.75;97099.75;6258531;27;96273;-58
2023/03/08 04:45:06;;;;;;;;;15.00;13.20;;;;;9.02;41.01;97097.81;6252788;27;96485;-58
2023/03/08 04:48:09;;;;;;;;;12.40;12.40;;;;;9.08;41.01;97094.94;6263354;27;96777;-59
2023/03/08 04:51:15;;;;;;;;;13.80;12.20;;;;;9.19;40.72;97108.47;6244249;27;97343;-58
2023/03/08 04:54:20;;;;;;;;;14.60;13.40;;;;;9.21;40.73;97109.81;6251535;27;96766;-58
2023/03/08 04:57:30;;;;;;;;;13.20;12.20;;;;;9.18;41.06;97086.13;6271282;27;97713;-58
2023/03/08 05:00:36;;;;;;;;;16.50;15.50;;;;;9.30;40.81;97110.97;6264908;27;97416;-59
2023/03/08 05:03:40;;;;;;;;;11.00;10.80;;;;;9.20;41.10;97108.19;6267308;27;96341;-59
2023/03/08 05:06:44;;;;;;;;;15.80;14.80;;;;;9.24;41.05;97125.41;6259525;27;96367;-59
2023/03/08 05:09:53;;;;;;;;;14.75;13.75;;;;;9.16;41.35;97114.34;6201359;27;96831;-59
2023/03/08 05:13:00;;;;;;;;;15.20;13.20;;;;;9.32;41.11;97126.84;6267374;27;96800;-62
2023/03/08 05:16:05;;;;;;;;;14.60;13.00;;;;;9.36;41.09;97120.69;6227896;27;96858;-62
2023/03/08 05:19:09;;;;;;;;;14.00;13.60;;;;;9.36;41.05;97117.19;6216023;27;96626;-62
2023/03/08 05:22:20;;;;;;;;;12.25;11.75;;;;;9.46;41.13;97122.66;6270852;27;96420;-60
2023/03/08 05:25:26;;;;;;;;;14.00;12.80;;;;;9.44;40.91;97122.91;6235086;27;97037;-62
2023/03/08 05:28:33;;;;;;;;;13.60;13.00;;;;;9.29;40.91;97103.94;6267546;27;96434;-62
2023/03/08 05:31:38;;;;;;;;;13.00;11.50;;;;;9.33;40.84;97126.59;6269301;27;96590;-62
2023/03/08 05:34:44;;;;;;;;;13.00;10.00;;;;;9.46;40.73;97131.53;6274913;27;96698;-62
2023/03/08 05:37:55;;;;;;;;;12.00;10.00;;;;;9.55;40.24;97138.06;6270987;27;97177;-60
2023/03/08 05:41:00;;;;;;;;;10.50;9.50;;;;;9.53;40.16;97136.69;6249856;27;98658;-61
2023/03/08 05:44:06;;;;;;;;;14.50;13.25;;;;;9.44;40.41;97132.84;6278447;27;96645;-62
2023/03/08 05:47:11;;;;;;;;;15.00;12.60;;;;;9.52;40.14;97130.50;6243092;27;96910;-62
2023/03/08 05:50:14;;;;;;;;;16.00;14.00;;;;;9.58;39.72;97132.16;6275031;27;97732;-62
2023/03/08 05:53:20;;;;;;;;;13.60;13.00;;;;;9.73;39.71;97131.44;6223404;27;96252;-62
2023/03/08 05:56:24;;;;;;;;;14.40;13.40;;;;;9.80;39.47;97142.00;6269224;27;96531;-62
2023/03/08 05:59:42;;;;;;;;;13.40;12.40;;;;;9.70;39.25;97125.78;6280556;27;97037;-60
2023/03/08 06:02:50;;;;;;;;;13.00;12.00;;;;;9.93;39.20;97147.72;6226635;27;96286;-62
2023/03/08 06:05:56;;;;;;;;;14.25;13.25;;;;;9.87;38.86;97138.00;6248956;27;96187;-62
2023/03/08 06:09:00;;;;;;;;;13.00;13.00;;;;;10.15;38.57;97171.03;6252075;27;96915;-63
2023/03/08 06:12:05;;;;;;;;;12.00;11.00;;;;;10.18;38.56;97178.59;6268741;27;97962;-62
2023/03/08 06:15:11;;;;;;;;;13.25;11.25;;;;;10.17;38.67;97168.91;6251161;27;96909;-62
2023/03/08 06:18:15;;;;;;;;;11.60;10.40;;;;;10.26;38.35;97172.75;6271105;27;96724;-62
2023/03/08 06:21:21;;;;;;;;;12.75;11.00;;;;;10.43;38.22;97178.75;6252572;27;96209;-62
2023/03/08 06:24:32;;;;;;;;;15.50;14.00;;;;;10.37;38.16;97179.78;6258199;27;96791;-63
2023/03/08 06:27:39;;;;;;;;;12.00;11.00;;;;;10.47;38.18;97174.44;6259480;27;96850;-63
2023/03/08 06:31:07;;;;;;;;;12.20;11.20;;;;;10.53;38.43;97175.28;6258745;27;96962;-62
2023/03/08 06:34:11;;;;;;;;;13.00;13.00;;;;;10.58;38.13;97167.22;6190616;27;97530;-63
2023/03/08 06:37:16;;;;;;;;;13.00;13.00;;;;;10.72;37.98;97189.91;6274908;27;97007;-62
2023/03/08 06:40:20;;;;;;;;;10.00;10.00;;;;;10.85;37.89;97197.50;6287232;27;97344;-63
2023/03/08 06:43:23;;;;;;;;;13.50;13.00;;;;;10.96;37.26;97207.25;6282385;27;96458;-63
2023/03/08 06:46:28;;;;;;;;;12.00;11.40;;;;;10.99;37.42;97205.94;6268065;27;96530;-63
2023/03/08 06:49:32;;;;;;;;;13.00;11.50;;;;;10.96;37.15;97219.91;6283215;27;96288;-62
2023/03/08 06:52:36;;;;;;;;;15.00;15.00;;;;;11.21;37.44;97220.00;6262134;27;96615;-63
2023/03/08 06:55:42;;;;;;;;;17.00;15.00;;;;;12.26;35.70;97223.06;6245450;27;96906;-63
2023/03/08 06:58:46;;;;;;;;;19.00;19.00;;;;;14.24;32.88;97223.63;6259115;27;96499;-63
2023/03/08 07:01:50;;;;;;;;;25.00;23.80;;;;;16.55;29.40;97223.44;6295527;27;96476;-63
2023/03/08 07:04:54;;;;;;;;;10.80;9.00;;;;;16.24;28.34;97230.53;6280513;27;96324;-63
2023/03/08 07:07:57;;;;;;;;;13.00;12.00;;;;;15.69;29.88;97240.38;6232562;27;96445;-63
2023/03/08 07:11:01;;;;;;;;;13.00;13.00;;;;;15.07;30.30;97228.72;6285270;27;96970;-63
2023/03/08 07:14:05;;;;;;;;;10.00;10.00;;;;;15.05;30.74;97247.22;6231146;27;98354;-63
2023/03/08 07:17:09;;;;;;;;;10.00;9.75;;;;;14.64;30.90;97239.53;6245112;27;98981;-63
2023/03/08 07:20:16;;;;;;;;;12.00;11.00;;;;;14.34;31.04;97247.94;6295341;27;96724;-63
2023/03/08 07:23:20;;;;;;;;;14.75;14.00;;;;;13.94;31.88;97261.81;6213775;27;96299;-63
2023/03/08 07:26:23;;;;;;;;;13.60;13.00;;;;;13.39;32.49;97261.88;6288798;27;96195;-63
2023/03/08 07:29:27;;;;;;;;;12.60;12.00;;;;;12.96;33.18;97273.41;6213100;27;97624;-63
2023/03/08 07:32:31;;;;;;;;;14.00;12.80;;;;;12.45;34.46;97268.16;6261760;27;96307;-63
2023/03/08 07:35:35;;;;;;;;;15.40;14.00;;;;;12.38;34.34;97266.81;6250563;27;97772;-63
2023/03/08 07:38:41;;;;;;;;;12.00;11.00;;;;;12.20;34.77;97246.56;6267278;27;96326;-63
2023/03/08 07:41:45;;;;;;;;;15.60;15.00;;;;;12.02;35.36;97256.03;6293751;27;96451;-63
2023/03/08 07:44:49;;;;;;;;;13.00;11.00;;;;;13.40;33.87;97255.41;6235548;27;96551;-62
2023/03/08 07:47:54;;;;;;;;;13.60;10.00;;;;;16.39;28.79;97252.84;6249718;27;96244;-62
2023/03/08 07:51:02;;;;;;;;;13.80;12.80;;;;;18.99;25.15;97247.56;6282468;27;97537;-63
2023/03/08 07:54:06;;;;;;;;;11.60;11.00;;;;;20.46;23.84;97250.50;6251417;27;96950;-62
2023/03/08 07:57:13;;;;;;;;;11.60;11.00;;;;;20.53;22.56;97254.34;6254769;27;97424;-63
2023/03/08 08:00:17;;;;;;;;;9.50;8.25;;;;;21.43;21.38;97257.72;6257171;27;97104;-63
2023/03/08 08:03:22;;;;;;;;;10.40;9.40;;;;;22.70;20.65;97256.25;6294375;27;96385;-63
2023/03/08 08:06:26;;;;;;;;;12.00;10.50;;;;;23.63;19.65;97276.63;6259784;27;96476;-63
2023/03/08 08:09:29;;;;;;;;;11.25;10.50;;;;;23.83;19.10;97272.94;6250955;27;96804;-63
2023/03/08 08:12:33;;;;;;;;;12.60;11.00;;;;;21.78;20.75;97276.72;6277544;27;97333;-63
2023/03/08 08:15:37;;;;;;;;;13.00;11.00;;;;;19.78;23.21;97280.28;6250912;27;97002;-63
2023/03/08 08:18:42;;;;;;;;;11.00;11.00;;;;;18.77;24.25;97294.03;6210654;27;97196;-63
2023/03/08 08:21:45;;;;;;;;;12.00;11.00;;;;;18.06;25.60;97284.88;6214129;27;96483;-63
2023/03/08 08:24:49;;;;;;;;;11.60;10.60;;;;;17.47;26.26;97290.53;6275797;27;96885;-63
2023/03/08 08:27:52;;;;;;;;;13.40;11.40;;;;;17.00;27.22;97280.88;6245625;27;96932;-62
2023/03/08 08:30:57;;;;;;;;;14.00;11.60;;;;;16.39;27.72;97273.78;6216332;27;96916;-63
2023/03/08 08:34:02;;;;;;;;;13.00;12.00;;;;;16.13;28.21;97284.25;6306048;27;97512;-63
2023/03/08 08:37:05;;;;;;;;;15.25;14.00;;;;;17.17;27.29;97275.63;6245052;27;98345;-63
2023/03/08 08:40:10;;;;;;;;;9.00;9.00;;;;;19.18;24.46;97262.91;6272435;27;96760;-63
2023/03/08 08:43:14;;;;;;;;;15.00;13.00;;;;;20.80;22.85;97257.81;6203454;27;96430;-63
2023/03/08 08:46:18;;;;;;;;;13.25;12.00;;;;;22.29;20.94;97257.09;6250678;27;96611;-63
2023/03/08 08:49:23;;;;;;;;;13.20;11.20;;;;;23.71;19.56;97256.41;6237777;27;98877;-63
2023/03/08 08:52:26;;;;;;;;;11.00;11.00;;;;;24.94;18.45;97261.97;6268390;27;99636;-63
2023/03/08 08:55:29;;;;;;;;;14.40;13.00;;;;;25.28;17.62;97259.66;6297225;27;96382;-63
2023/03/08 08:58:34;;;;;;;;;12.00;11.00;;;;;25.35;17.74;97266.16;6265197;27;97128;-60
2023/03/08 09:01:42;;;;;;;;;11.60;11.00;;;;;25.83;16.96;97255.88;6236782;27;96979;-61
2023/03/08 09:04:47;;;;;;;;;12.75;11.00;;;;;24.98;17.60;97267.56;6210236;27;97119;-61
2023/03/08 09:07:52;;;;;;;;;13.00;12.00;;;;;24.22;18.62;97271.38;6272146;27;96724;-61
2023/03/08 09:10:56;;;;;;;;;12.00;11.00;;;;;24.47;18.49;97261.06;6243909;27;96654;-61
2023/03/08 09:14:01;;;;;;;;;13.00;11.00;;;;;24.32;18.17;97251.59;6259939;27;96656;-63
2023/03/08 09:17:05;;;;;;;;;10.50;10.50;;;;;24.80;17.97;97253.28;6272182;27;96683;-63
2023/03/08 09:20:11;;;;;;;;;12.40;11.40;;;;;25.01;17.75;97261.34;6202798;27;96501;-63
2023/03/08 09:23:15;;;;;;;;;14.50;13.00;;;;;24.27;17.98;97262.84;6247208;27;99035;-63
2023/03/08 09:26:19;;;;;;;;;12.00;11.00;;;;;24.36;17.97;97254.44;6268158;27;96515;-63
2023/03/08 09:29:22;;;;;;;;;11.75;10.75;;;;;24.67;17.62;97262.00;6287957;27;96996;-63
2023/03/08 09:32:26;;;;;;;;;12.60;12.00;;;;;25.27;17.67;97252.53;6261890;27;96590;-63
2023/03/08 09:35:31;;;;;;;;;11.60;10.60;;;;;26.32;16.50;97244.31;6285316;27;96578;-63
2023/03/08 09:38:34;;;;;;;;;10.75;10.75;;;;;26.33;15.44;97271.56;6257316;27;97062;-63
2023/03/08 09:41:48;;;;;;;;;12.60;11.60;;;;;26.84;15.93;97254.78;6282428;27;96298;-63
2023/03/08 09:45:07;;;;;;;;;11.80;10.80;;;;;26.54;15.21;97249.88;6269941;27;96531;-63
2023/03/08 09:48:15;;;;;;;;;13.00;11.60;;;;;25.39;16.21;97278.06;6276173;27;96865;-64
2023/03/08 09:51:26;;;;;;;;;15.00;12.60;;;;;24.92;16.92;97269.00;6260025;27;98351;-63
2023/03/08 09:54:32;;;;;;;;;12.75;10.00;;;;;24.95;16.88;97260.81;6198004;27;96463;-63
2023/03/08 09:57:42;;;;;;;;;9.00;8.80;;;;;25.14;16.73;97257.34;6270888;27;96632;-63
2023/03/08 10:00:46;;;;;;;;;11.00;10.00;;;;;25.18;16.38;97262.94;6274152;27;96336;-64
2023/03/08 10:04:05;;;;;;;;;13.40;12.40;;;;;24.07;16.92;97261.84;6286169;27;96239;-63
2023/03/08 10:07:32;;;;;;;;;10.00;9.00;;;;;23.10;17.96;97261.94;6257174;27;96498;-63
2023/03/08 10:10:46;;;;;;;;;12.50;11.50;;;;;23.40;18.02;97254.25;6188336;27;96662;-63
2023/03/08 10:13:56;;;;;;;;;11.00;10.00;;;;;22.88;18.01;97249.41;6220545;27;96571;-64
2023/03/08 10:17:05;;;;;;;;;13.60;13.00;;;;;22.60;18.31;97242.09;6247042;27;98520;-61
2023/03/08 10:20:18;;;;;;;;;10.25;9.25;;;;;22.39;18.44;97250.38;6236919;27;96706;-63
2023/03/08 10:23:24;;;;;;;;;10.00;10.00;;;;;22.04;18.55;97242.47;6281845;27;96466;-63
2023/03/08 10:26:28;;;;;;;;;11.60;10.60;;;;;21.97;18.86;97244.97;6278172;27;97454;-63
2023/03/08 10:29:32;;;;;;;;;10.75;10.25;;;;;21.73;19.26;97233.81;6301068;27;99390;-64
2023/03/08 10:32:42;;;;;;;;;14.00;12.00;;;;;21.18;19.84;97234.81;6267536;27;96331;-63
2023/03/08 10:35:58;;;;;;;;;13.00;12.00;;;;;21.23;20.20;97233.00;6252566;27;96111;-64
2023/03/08 10:39:07;;;;;;;;;11.00;11.00;;;;;21.32;20.54;97226.34;6231722;27;98396;-63
2023/03/08 10:42:15;;;;;;;;;12.00;11.00;;;;;21.36;20.50;97227.28;6267191;27;96647;-63
2023/03/08 10:45:22;;;;;;;;;12.00;10.40;;;;;21.27;20.33;97231.19;6212236;27;97542;-63
2023/03/08 10:48:26;;;;;;;;;10.50;10.00;;;;;20.75;20.77;97225.94;6270573;27;96430;-63
2023/03/08 10:51:29;;;;;;;;;11.00;11.00;;;;;20.34;21.46;97234.72;6239075;27;96313;-63
2023/03/08 10:54:34;;;;;;;;;11.00;10.20;;;;;19.60;22.19;97229.41;6263631;27;96470;-63
2023/03/08 10:57:40;;;;;;;;;11.60;10.60;;;;;20.01;21.89;97219.94;6261549;27;96249;-63
2023/03/08 11:00:44;;;;;;;;;12.00;11.00;;;;;20.16;21.79;97220.25;6204552;27;96285;-63
2023/03/08 11:03:58;;;;;;;;;13.00;12.00;;;;;19.75;21.94;97223.47;6199728;27;96322;-63
2023/03/08 11:07:11;;;;;;;;;11.75;9.00;;;;;19.00;22.63;97218.34;6202783;27;96950;-63
2023/03/08 11:10:18;;;;;;;;;11.60;10.80;;;;;18.33;23.53;97221.19;6201582;27;96391;-63
2023/03/08 11:13:27;;;;;;;;;10.50;9.50;;;;;17.77;24.20;97229.13;6209904;27;96373;-63
2023/03/08 11:16:58;;;;;;;;;12.40;10.40;;;;;17.26;24.69;97222.06;6203330;27;96464;-63
2023/03/08 11:20:14;;;;;;;;;10.00;9.25;;;;;17.05;25.04;97216.25;6266731;27;98351;-63
2023/03/08 11:23:26;;;;;;;;;12.00;11.00;;;;;16.75;25.14;97203.25;6206460;27;96521;-63
2023/03/08 11:26:40;;;;;;;;;11.00;10.40;;;;;16.64;25.24;97196.38;6264207;27;96488;-63
2023/03/08 11:29:57;;;;;;;;;12.00;11.25;;;;;16.58;25.70;97209.28;6203985;27;96259;-63
2023/03/08 11:33:32;;;;;;;;;12.00;11.00;;;;;16.35;26.01;97208.31;6197487;27;96389;-63
2023/03/08 11:36:43;;;;;;;;;11.00;10.00;;;;;16.02;26.22;97183.06;6259509;27;98360;-62
2023/03/08 11:39:53;;;;;;;;;13.00;12.00;;;;;15.93;26.29;97203.84;6282346;27;96511;-63
2023/03/08 11:43:18;;;;;;;;;12.00;10.60;;;;;15.63;26.59;97198.91;6314457;27;96591;-63
2023/03/08 11:46:26;;;;;;;;;12.40;11.00;;;;;15.32;26.97;97195.81;6200836;27;96232;-63
2023/03/08 11:49:47;;;;;;;;;14.00;13.40;;;;;15.12;27.32;97194.16;6250149;27;98848;-63
2023/03/08 11:53:04;;;;;;;;;12.50;10.00;;;;;14.99;27.58;97194.09;6255555;27;96893;-63
2023/03/08 11:56:44;;;;;;;;;11.00;11.00;;;;;14.91;27.38;97184.66;6212350;27;96356;-63
2023/03/08 11:59:55;;;;;;;;;10.20;9.20;;;;;14.96;27.23;97189.22;6235936;27;97096;-63
2023/03/08 12:03:06;;;;;;;;;9.00;9.00;;;;;15.03;27.12;97185.06;6255395;27;98415;-63
2023/03/08 12:06:14;;;;;;;;;10.50;10.50;;;;;14.95;27.20;97188.44;6209600;27;96532;-63
2023/03/08 12:09:37;;;;;;;;;12.00;11.00;;;;;14.88;27.10;97185.25;6249882;27;96409;-63
2023/03/08 12:12:45;;;;;;;;;9.60;9.40;;;;;14.75;26.90;97185.97;6262497;27;96216;-62
2023/03/08 12:15:55;;;;;;;;;11.00;10.00;;;;;14.77;27.33;97188.38;6279891;27;97087;-63
2023/03/08 12:19:05;;;;;;;;;12.50;11.00;;;;;14.87;27.42;97197.22;6229484;27;98337;-63
2023/03/08 12:22:42;;;;;;;;;11.40;11.00;;;;;14.89;27.23;97186.88;6291689;27;96674;-63
2023/03/08 12:25:49;;;;;;;;;13.75;13.00;;;;;15.00;27.54;97184.84;6302933;27;96457;-62
2023/03/08 12:28:57;;;;;;;;;12.00;12.00;;;;;15.04;27.08;97170.41;6281380;27;96530;-62
2023/03/08 12:32:03;;;;;;;;;13.00;12.00;;;;;15.16;27.38;97157.19;6253722;27;96995;-62
2023/03/08 12:35:24;;;;;;;;;11.20;11.00;;;;;15.64;26.75;97148.13;6264345;27;96869;-62
2023/03/08 12:38:38;;;;;;;;;12.80;12.00;;;;;16.80;25.59;97152.25;6268459;27;96328;-62
2023/03/08 12:41:41;;;;;;;;;15.00;12.00;;;;;17.78;24.70;97147.06;6274206;27;96741;-63
2023/03/08 12:44:45;;;;;;;;;12.00;11.40;;;;;18.45;23.59;97136.03;6231753;27;96444;-63
2023/03/08 12:48:02;;;;;;;;;12.00;12.00;;;;;18.86;23.33;97128.31;6302263;27;96634;-64
2023/03/08 12:51:19;;;;;;;;;14.00;13.00;;;;;19.04;23.71;97123.72;6244179;27;96898;-61
2023/03/08 12:54:23;;;;;;;;;14.00;13.00;;;;;19.07;22.98;97131.28;6303016;27;96738;-61
2023/03/08 12:57:30;;;;;;;;;13.00;13.00;;;;;19.28;23.06;97140.47;6278157;27;97114;-61
2023/03/08 13:00:36;;;;;;;;;13.00;11.00;;;;;19.30;23.18;97145.63;6230722;27;97058;-61
2023/03/08 13:03:42;;;;;;;;;16.60;16.40;;;;;19.09;22.68;97131.75;6289794;27;96396;-61
2023/03/08 13:07:09;;;;;;;;;14.00;11.00;;;;;19.13;23.00;97121.81;6276556;27;96299;-61
2023/03/08 13:10:20;;;;;;;;;12.00;11.80;;;;;19.08;23.16;97119.22;6305111;27;96243;-61
2023/03/08 13:13:30;;;;;;;;;12.50;11.50;;;;;19.04;23.11;97116.34;6278125;27;96629;-61
2023/03/08 13:16:41;;;;;;;;;10.60;9.60;;;;;18.90;22.81;97120.31;6263940;27;96761;-61
2023/03/08 13:19:48;;;;;;;;;12.00;11.67;;;;;18.66;23.24;97115.28;6210190;28;96748;-61
2023/03/08 13:23:02;;;;;;;;;14.50;12.75;;;;;18.47;23.79;97118.22;6262794;27;96598;-61
2023/03/08 13:26:23;;;;;;;;;11.50;11.00;;;;;18.41;23.78;97110.50;6261180;27;96813;-58
2023/03/08 13:29:30;;;;;;;;;16.00;14.00;;;;;18.28;23.66;97103.22;6271002;27;96242;-60
2023/03/08 13:32:34;;;;;;;;;13.60;12.60;;;;;17.96;23.51;97104.34;6289691;27;96277;-60
2023/03/08 13:35:40;;;;;;;;;12.60;12.60;;;;;17.84;23.90;97090.50;6311779;27;96734;-59
2023/03/08 13:38:43;;;;;;;;;12.80;11.80;;;;;17.81;24.29;97083.75;6329872;27;96985;-60
2023/03/08 13:41:48;;;;;;;;;13.60;13.20;;;;;17.77;24.08;97093.66;6291317;27;96749;-60
2023/03/08 13:44:52;;;;;;;;;14.75;13.75;;;;;17.69;24.26;97087.03;6348104;27;96167;-59
2023/03/08 13:47:58;;;;;;;;;12.00;12.00;;;;;17.60;24.49;97093.53;6289003;27;96486;-59
2023/03/08 13:51:03;;;;;;;;;12.40;12.00;;;;;17.45;24.31;97091.16;6261057;27;96272;-59
2023/03/08 13:54:15;;;;;;;;;14.60;13.00;;;;;17.19;24.29;97080.88;6278047;27;96395;-59
2023/03/08 13:57:21;;;;;;;;;13.00;12.00;;;;;17.13;24.67;97078.56;6276821;27;96253;-60
2023/03/08 14:00:30;;;;;;;;;11.40;10.40;;;;;17.04;24.68;97058.66;6298336;27;96692;-59
2023/03/08 14:03:34;;;;;;;;;10.00;10.00;;;;;17.06;25.17;97067.28;6272304;27;97475;-59
2023/03/08 14:06:42;;;;;;;;;10.20;10.00;;;;;17.02;25.17;97058.13;6236982;27;96264;-59
2023/03/08 14:09:45;;;;;;;;;11.80;11.00;;;;;16.84;25.08;97058.00;6272495;27;96599;-59
2023/03/08 14:12:48;;;;;;;;;14.00;12.00;;;;;16.72;25.33;97060.44;6289292;27;96675;-58
2023/03/08 14:15:54;;;;;;;;;15.00;14.50;;;;;16.63;25.50;97051.38;6288887;27;96969;-59
2023/03/08 14:18:58;;;;;;;;;13.00;11.00;;;;;16.44;25.45;97035.16;6250226;27;96343;-59
2023/03/08 14:22:10;;;;;;;;;12.00;11.20;;;;;16.38;25.61;97036.38;6256012;27;96358;-59